Time;durP1;ratioP1;P1;durP2;ratioP2;P2;SDS_P1;SDS_P2;PMS_P1;PMS_P2;Temp;Humidity;BMP_temperature;BMP_pressure;BME280_temperature;BME280_humidity;BME280_pressure;Samples;Min_cycle;Max_cycle;Signal;HPM_P1;HPM_P2
2022/03/22 00:00:17;;;;;;;15.77;13.30;;;6.80;89.70;;;;;;5011388;28;20419;-72
2022/03/22 00:02:43;;;;;;;14.53;12.97;;;6.80;90.00;;;;;;5013452;28;20418;-72
2022/03/22 00:05:09;;;;;;;18.23;13.50;;;6.70;89.40;;;;;;5013026;28;20191;-72
2022/03/22 00:07:34;;;;;;;17.67;14.20;;;6.80;89.70;;;;;;5013113;28;20698;-72
2022/03/22 00:10:00;;;;;;;14.40;12.90;;;6.80;90.40;;;;;;5013119;28;20172;-72
2022/03/22 00:12:26;;;;;;;17.20;13.57;;;6.90;90.40;;;;;;5013070;28;20165;-72
2022/03/22 00:14:51;;;;;;;16.03;14.20;;;6.80;90.10;;;;;;5012593;28;20188;-72
2022/03/22 00:17:17;;;;;;;16.37;13.47;;;6.80;90.30;;;;;;5012908;28;20195;-72
2022/03/22 00:19:43;;;;;;;16.87;13.47;;;6.80;90.40;;;;;;5011788;28;20571;-72
2022/03/22 00:22:10;;;;;;;15.63;13.90;;;6.70;90.40;;;;;;5011656;28;20271;-72
2022/03/22 00:24:36;;;;;;;18.43;14.70;;;6.80;90.60;;;;;;5012921;28;20210;-72
2022/03/22 00:27:01;;;;;;;14.40;12.43;;;6.80;90.80;;;;;;5011638;28;20423;-72
2022/03/22 00:29:27;;;;;;;16.40;13.87;;;6.80;90.60;;;;;;5012469;28;20637;-72
2022/03/22 00:31:56;;;;;;;18.03;13.87;;;6.80;90.50;;;;;;5012838;28;20632;-72
2022/03/22 00:34:23;;;;;;;15.60;12.93;;;6.70;90.60;;;;;;4996008;28;20565;-71
2022/03/22 00:36:49;;;;;;;19.70;14.97;;;6.70;90.90;;;;;;4993130;28;20459;-72
2022/03/22 00:39:15;;;;;;;15.33;12.93;;;6.60;90.90;;;;;;4993424;28;20430;-72
2022/03/22 00:41:41;;;;;;;13.33;11.90;;;6.60;91.10;;;;;;4993142;28;20408;-72
2022/03/22 00:44:08;;;;;;;15.30;13.17;;;6.50;91.30;;;;;;4993015;28;20208;-72
2022/03/22 00:46:36;;;;;;;19.20;13.67;;;6.40;91.60;;;;;;4992941;28;20256;-72
2022/03/22 00:49:03;;;;;;;13.17;11.77;;;6.30;91.60;;;;;;4991846;28;20424;-70
2022/03/22 00:51:29;;;;;;;15.10;12.93;;;6.30;92.00;;;;;;4993119;28;20462;-71
2022/03/22 00:53:55;;;;;;;17.90;13.20;;;6.40;92.20;;;;;;4992954;28;20412;-72
2022/03/22 00:56:21;;;;;;;15.97;14.17;;;6.40;92.10;;;;;;4993036;28;20455;-72
2022/03/22 01:00:01;;;;;;;16.40;13.90;;;6.50;91.90;;;;;;4996507;28;20179;-71
2022/03/22 01:01:32;;;;;;;15.20;13.60;;;6.50;92.00;;;;;;5016029;28;20665;-72
2022/03/22 01:03:57;;;;;;;14.70;13.17;;;6.50;91.90;;;;;;5015992;28;20410;-72
2022/03/22 01:06:23;;;;;;;13.60;12.30;;;6.60;92.10;;;;;;5016017;28;20164;-72
2022/03/22 01:08:48;;;;;;;14.83;13.33;;;6.50;92.20;;;;;;5015970;28;20168;-71
2022/03/22 01:11:14;;;;;;;15.23;12.97;;;6.50;92.30;;;;;;5015941;28;20175;-72
2022/03/22 01:13:40;;;;;;;14.97;13.47;;;6.50;92.50;;;;;;5015688;28;20176;-72
2022/03/22 01:16:05;;;;;;;18.23;13.90;;;6.50;92.70;;;;;;5015413;28;20333;-71
2022/03/22 01:18:31;;;;;;;15.17;12.77;;;6.50;92.80;;;;;;5015721;28;20192;-72
2022/03/22 01:20:57;;;;;;;16.10;14.00;;;6.40;93.00;;;;;;5015696;28;20218;-71
2022/03/22 01:23:23;;;;;;;14.87;13.07;;;6.40;93.20;;;;;;5015896;28;20418;-71
2022/03/22 01:25:51;;;;;;;13.73;12.13;;;6.40;93.50;;;;;;5015668;28;20808;-72
2022/03/22 01:28:17;;;;;;;15.20;12.60;;;6.50;93.10;;;;;;5014271;28;20410;-71
2022/03/22 01:30:43;;;;;;;14.33;12.50;;;6.50;93.30;;;;;;5013707;28;20411;-72
2022/03/22 01:33:11;;;;;;;14.90;12.43;;;6.30;93.10;;;;;;5016004;28;20407;-72
2022/03/22 01:35:37;;;;;;;15.50;12.27;;;6.30;93.60;;;;;;5015617;28;20187;-71
2022/03/22 01:38:03;;;;;;;18.80;13.20;;;6.30;93.70;;;;;;5014433;28;20456;-72
2022/03/22 01:40:30;;;;;;;17.30;14.23;;;6.30;94.10;;;;;;5015880;28;20665;-72
2022/03/22 01:42:57;;;;;;;17.20;13.00;;;6.30;94.10;;;;;;5015528;28;20450;-71
2022/03/22 01:45:23;;;;;;;15.70;14.03;;;6.30;94.20;;;;;;5013455;28;20467;-72
2022/03/22 01:47:50;;;;;;;15.70;13.10;;;6.30;94.50;;;;;;5010600;28;20406;-72
2022/03/22 01:50:19;;;;;;;15.40;13.70;;;6.30;94.70;;;;;;4999982;28;20423;-72
2022/03/22 01:52:45;;;;;;;16.17;13.10;;;6.20;94.90;;;;;;4995477;28;20503;-72
2022/03/22 01:55:19;;;;;;;15.43;12.53;;;6.10;94.80;;;;;;4998318;28;20539;-72
2022/03/22 01:57:46;;;;;;;13.90;12.37;;;6.20;95.10;;;;;;4996462;28;20601;-72
2022/03/22 02:00:15;;;;;;;15.50;12.93;;;6.10;95.10;;;;;;5009270;28;20447;-72
2022/03/22 02:08:16;;;;;;;16.93;13.37;;;5.90;95.70;;;;;;5016188;28;20810;-72
2022/03/22 02:10:42;;;;;;;15.90;13.50;;;5.90;96.00;;;;;;5015151;28;20417;-71
2022/03/22 02:13:07;;;;;;;13.63;12.20;;;5.90;96.10;;;;;;5010515;28;20412;-71
2022/03/22 02:15:33;;;;;;;15.93;14.20;;;5.90;96.30;;;;;;4995214;28;20928;-72
2022/03/22 02:17:59;;;;;;;14.97;12.90;;;5.90;96.60;;;;;;4995495;28;20232;-72
2022/03/22 02:20:25;;;;;;;15.40;13.80;;;5.90;96.70;;;;;;4995289;28;20255;-72
2022/03/22 02:22:52;;;;;;;15.70;13.30;;;5.90;96.70;;;;;;4995948;28;20408;-73
2022/03/22 02:25:19;;;;;;;15.63;13.77;;;5.90;96.90;;;;;;4995893;28;20430;-72
2022/03/22 02:27:46;;;;;;;17.07;14.30;;;5.80;96.70;;;;;;4994960;28;20448;-72
2022/03/22 02:30:13;;;;;;;14.33;12.40;;;5.80;96.90;;;;;;5007838;28;20548;-71
2022/03/22 02:32:40;;;;;;;14.80;13.20;;;5.80;97.40;;;;;;4995601;28;20451;-72
2022/03/22 02:35:07;;;;;;;14.00;12.50;;;5.70;97.30;;;;;;4994990;28;20959;-71
2022/03/22 02:37:32;;;;;;;15.80;13.53;;;5.70;97.50;;;;;;4993543;28;20443;-71
2022/03/22 02:39:58;;;;;;;16.33;13.77;;;5.70;97.70;;;;;;4994616;28;20407;-72
2022/03/22 02:42:24;;;;;;;15.70;14.10;;;5.70;97.80;;;;;;4994900;28;20169;-71
2022/03/22 02:44:50;;;;;;;17.67;14.43;;;5.60;98.10;;;;;;4994017;28;20442;-71
2022/03/22 02:47:16;;;;;;;14.33;12.83;;;5.50;98.10;;;;;;4994739;28;20227;-70
2022/03/22 02:49:41;;;;;;;14.20;12.70;;;5.50;98.40;;;;;;4999383;28;20526;-71
2022/03/22 02:52:07;;;;;;;15.17;13.57;;;5.50;98.70;;;;;;5014231;28;20173;-70
2022/03/22 02:54:32;;;;;;;17.30;13.63;;;5.40;98.50;;;;;;5038076;23;20506;-71
2022/03/22 02:56:58;;;;;;;15.13;13.53;;;5.40;98.50;;;;;;5013283;28;20207;-72
2022/03/22 02:59:24;;;;;;;15.60;13.27;;;5.40;98.80;;;;;;5011501;28;20164;-71
2022/03/22 03:01:49;;;;;;;15.30;13.30;;;5.40;98.70;;;;;;5013728;28;20164;-72
2022/03/22 03:04:15;;;;;;;17.13;14.50;;;5.50;99.00;;;;;;5013409;28;20192;-72
2022/03/22 03:06:40;;;;;;;20.30;14.57;;;5.30;98.70;;;;;;5013344;28;20175;-72
2022/03/22 03:09:06;;;;;;;14.90;13.30;;;5.10;99.00;;;;;;5013565;28;20182;-71
2022/03/22 03:11:32;;;;;;;16.77;12.97;;;5.20;99.70;;;;;;5012904;28;20176;-71
2022/03/22 03:16:41;;;;;;;17.50;13.57;;;5.30;99.10;;;;;;5013325;28;20191;-71
2022/03/22 03:19:07;;;;;;;16.47;13.97;;;5.20;99.00;;;;;;5013265;28;20411;-71
2022/03/22 03:21:33;;;;;;;18.00;13.17;;;5.20;99.10;;;;;;5012796;28;20168;-71
2022/03/22 03:24:00;;;;;;;17.50;14.73;;;5.20;99.20;;;;;;5013006;28;20834;-71
2022/03/22 03:26:26;;;;;;;18.80;13.87;;;5.20;99.30;;;;;;5012944;28;20427;-71
2022/03/22 03:28:51;;;;;;;14.60;13.10;;;5.20;99.40;;;;;;5012947;28;20773;-71
2022/03/22 03:31:17;;;;;;;17.60;14.30;;;5.30;99.30;;;;;;5012667;28;20168;-71
2022/03/22 03:33:43;;;;;;;18.83;15.10;;;5.20;99.10;;;;;;5012981;28;20168;-72
2022/03/22 03:36:09;;;;;;;15.70;13.27;;;5.20;99.40;;;;;;5013258;28;20219;-72
2022/03/22 03:38:41;;;;;;;16.10;14.37;;;5.20;99.50;;;;;;5012756;28;20411;-72
2022/03/22 03:43:52;;;;;;;15.97;14.13;;;5.20;99.80;;;;;;5013305;28;20796;-71
2022/03/22 03:49:02;;;;;;;18.30;15.70;;;5.20;99.90;;;;;;5012867;28;20265;-71
2022/03/22 03:51:27;;;;;;;18.40;15.80;;;5.20;99.90;;;;;;5012522;28;20494;-71
2022/03/22 03:53:53;;;;;;;17.67;14.57;;;5.20;99.90;;;;;;5013008;28;20202;-71
2022/03/22 03:56:18;;;;;;;16.60;14.60;;;5.10;99.90;;;;;;5012577;28;20266;-71
2022/03/22 03:58:44;;;;;;;18.70;15.90;;;5.20;99.90;;;;;;5011433;28;20161;-71
2022/03/22 04:01:10;;;;;;;19.87;15.57;;;5.20;99.90;;;;;;5010263;28;20168;-72
2022/03/22 04:03:35;;;;;;;22.43;17.00;;;5.10;99.90;;;;;;5013110;28;20460;-72
2022/03/22 04:06:01;;;;;;;18.87;15.00;;;5.00;99.90;;;;;;5012515;28;20415;-72
2022/03/22 04:08:27;;;;;;;17.60;15.43;;;5.10;99.90;;;;;;5011378;28;20176;-72
2022/03/22 04:10:53;;;;;;;20.60;17.20;;;5.10;99.90;;;;;;5011200;28;20275;-71
2022/03/22 04:13:18;;;;;;;16.17;13.40;;;5.10;99.90;;;;;;5012562;28;20518;-71
2022/03/22 04:15:44;;;;;;;19.80;15.90;;;5.10;99.90;;;;;;5012219;28;20419;-71
2022/03/22 04:18:11;;;;;;;18.70;15.70;;;5.00;99.90;;;;;;5012839;28;20645;-72
2022/03/22 04:20:37;;;;;;;19.93;16.60;;;4.90;99.90;;;;;;5014001;28;20403;-72
2022/03/22 04:23:03;;;;;;;19.40;14.93;;;4.90;99.90;;;;;;5012738;28;20395;-71
2022/03/22 04:25:29;;;;;;;18.53;15.30;;;4.90;99.90;;;;;;5011178;28;20754;-72
2022/03/22 04:33:23;;;;;;;20.03;17.87;;;4.90;99.90;;;;;;4973695;28;20400;-72
2022/03/22 04:35:50;;;;;;;17.73;15.77;;;4.80;99.90;;;;;;4977317;28;20429;-72
2022/03/22 04:38:15;;;;;;;19.50;16.90;;;4.80;99.90;;;;;;4978391;28;20241;-72
2022/03/22 04:40:41;;;;;;;19.40;16.80;;;4.80;99.90;;;;;;5016544;28;20436;-71
2022/03/22 04:43:06;;;;;;;17.93;15.47;;;4.80;99.90;;;;;;5016229;28;20168;-71
2022/03/22 04:45:32;;;;;;;17.43;15.50;;;4.90;99.90;;;;;;5013026;28;20180;-71
2022/03/22 04:47:58;;;;;;;19.97;17.17;;;4.80;99.90;;;;;;5008775;28;20192;-72
2022/03/22 04:50:23;;;;;;;18.23;15.90;;;4.70;99.90;;;;;;4998675;28;20169;-72
2022/03/22 04:58:17;;;;;;;16.83;14.97;;;4.60;99.90;;;;;;5016218;28;20390;-72
2022/03/22 05:00:43;;;;;;;23.30;17.30;;;4.70;99.90;;;;;;5014126;28;20414;-72
2022/03/22 05:03:09;;;;;;;20.23;17.23;;;4.60;99.90;;;;;;5015712;28;20198;-72
2022/03/22 05:08:19;;;;;;;19.57;16.70;;;4.60;99.90;;;;;;5015898;28;20171;-72
2022/03/22 05:10:44;;;;;;;20.67;16.37;;;4.70;99.90;;;;;;5015753;28;20399;-72
2022/03/22 05:13:10;;;;;;;19.33;16.77;;;4.60;99.90;;;;;;5015096;28;20199;-71
2022/03/22 05:15:36;;;;;;;19.73;15.77;;;4.60;99.90;;;;;;5013495;28;20231;-72
2022/03/22 05:18:02;;;;;;;24.07;18.63;;;4.60;99.90;;;;;;5015554;28;20542;-72
2022/03/22 05:20:28;;;;;;;19.13;17.10;;;4.50;99.90;;;;;;5015974;28;20168;-71
2022/03/22 05:22:54;;;;;;;18.50;16.50;;;4.60;99.90;;;;;;5016126;28;20168;-72
2022/03/22 05:25:19;;;;;;;20.23;16.00;;;4.50;99.90;;;;;;5015490;28;20450;-71
2022/03/22 05:27:45;;;;;;;18.67;16.67;;;4.60;99.90;;;;;;5015260;28;20214;-72
2022/03/22 05:30:11;;;;;;;19.10;16.27;;;4.50;99.90;;;;;;5014711;28;20415;-71
2022/03/22 05:32:37;;;;;;;21.53;17.30;;;4.50;99.90;;;;;;5014986;28;20784;-72
2022/03/22 05:35:03;;;;;;;18.53;16.40;;;4.60;99.90;;;;;;5015087;28;20450;-72
2022/03/22 05:37:28;;;;;;;19.83;17.70;;;4.60;99.90;;;;;;5015471;28;20334;-72
2022/03/22 05:39:54;;;;;;;21.87;17.87;;;4.60;99.90;;;;;;5014890;28;20180;-74
2022/03/22 05:42:20;;;;;;;20.10;16.90;;;4.50;99.90;;;;;;5015720;28;20470;-73
2022/03/22 05:44:45;;;;;;;19.77;15.77;;;4.50;99.90;;;;;;5014446;28;20214;-73
2022/03/22 05:47:11;;;;;;;21.30;17.53;;;4.60;99.90;;;;;;5013829;28;20180;-72
2022/03/22 05:49:38;;;;;;;22.20;17.53;;;4.60;99.90;;;;;;5013825;28;20419;-71
2022/03/22 05:52:04;;;;;;;20.80;17.70;;;4.70;99.90;;;;;;5015337;28;20212;-71
2022/03/22 05:54:29;;;;;;;19.50;16.70;;;4.80;99.90;;;;;;5015086;28;20562;-73
2022/03/22 05:56:55;;;;;;;20.37;17.27;;;4.80;99.90;;;;;;5013658;28;20536;-70
2022/03/22 05:59:21;;;;;;;19.27;16.90;;;4.80;99.90;;;;;;5013304;28;20250;-71
2022/03/22 06:01:47;;;;;;;22.37;17.10;;;4.90;99.90;;;;;;5014837;28;20190;-71
2022/03/22 06:04:13;;;;;;;20.50;17.17;;;4.90;99.90;;;;;;5015472;28;20206;-72
2022/03/22 06:06:39;;;;;;;21.90;17.67;;;4.90;99.90;;;;;;5015336;28;20183;-73
2022/03/22 06:09:05;;;;;;;17.67;15.53;;;4.90;99.90;;;;;;5016214;28;20497;-73
2022/03/22 06:11:35;;;;;;;24.83;19.00;;;4.90;99.90;;;;;;5014963;28;20407;-73
2022/03/22 06:14:03;;;;;;;21.33;17.97;;;4.90;99.90;;;;;;5014447;28;20411;-73
2022/03/22 06:16:29;;;;;;;25.60;18.30;;;4.90;99.90;;;;;;5012772;28;20485;-72
2022/03/22 06:18:55;;;;;;;22.00;18.43;;;4.80;99.90;;;;;;5014424;28;20407;-71
2022/03/22 06:21:21;;;;;;;22.57;18.77;;;4.90;99.90;;;;;;5003898;28;20399;-72
2022/03/22 06:23:49;;;;;;;21.50;19.20;;;5.00;99.90;;;;;;4994313;28;20408;-72
2022/03/22 06:26:15;;;;;;;23.57;19.20;;;5.00;99.90;;;;;;4994659;28;20710;-71
2022/03/22 06:28:41;;;;;;;24.70;19.17;;;5.10;99.90;;;;;;4994591;28;20490;-71
2022/03/22 06:31:07;;;;;;;28.27;19.93;;;5.10;99.90;;;;;;5009226;28;20297;-72
2022/03/22 06:33:33;;;;;;;22.57;18.50;;;5.20;99.90;;;;;;5014381;28;20897;-73
2022/03/22 06:35:59;;;;;;;20.90;17.90;;;5.20;99.90;;;;;;5013794;28;20561;-72
2022/03/22 06:38:25;;;;;;;24.57;18.50;;;5.30;99.90;;;;;;5014555;28;20179;-73
2022/03/22 06:40:51;;;;;;;24.47;20.13;;;5.30;99.90;;;;;;5012562;28;20411;-71
2022/03/22 06:43:19;;;;;;;21.07;18.50;;;5.40;99.90;;;;;;5013636;28;20168;-71
2022/03/22 06:45:46;;;;;;;22.83;17.93;;;5.50;99.90;;;;;;5013238;28;20429;-72
2022/03/22 06:48:13;;;;;;;22.60;19.10;;;5.60;99.90;;;;;;5013717;28;20461;-73
2022/03/22 06:50:39;;;;;;;21.87;18.50;;;5.60;99.90;;;;;;5013725;28;20908;-71
2022/03/22 06:53:06;;;;;;;20.90;18.70;;;5.80;99.90;;;;;;5012471;28;20916;-69
2022/03/22 06:55:33;;;;;;;19.10;17.07;;;5.90;99.90;;;;;;5013562;28;20490;-71
2022/03/22 06:57:59;;;;;;;32.23;21.87;;;5.90;99.90;;;;;;5012963;28;20447;-72
2022/03/22 07:00:28;;;;;;;23.53;18.80;;;6.10;99.90;;;;;;5012006;28;20932;-69
2022/03/22 07:02:55;;;;;;;19.40;17.17;;;6.20;99.90;;;;;;5013856;28;20431;-68
2022/03/22 07:05:21;;;;;;;19.40;16.87;;;6.40;99.90;;;;;;5013555;28;20447;-68
2022/03/22 07:07:47;;;;;;;20.87;18.67;;;6.50;99.90;;;;;;5013821;28;20827;-68
2022/03/22 07:10:15;;;;;;;20.23;17.73;;;6.70;99.90;;;;;;5013405;28;20545;-69
2022/03/22 07:12:58;;;;;;;20.70;18.07;;;6.80;99.90;;;;;;5013226;28;20172;-70
2022/03/22 07:15:34;;;;;;;22.80;17.30;;;6.90;99.60;;;;;;5013116;28;20794;-70
2022/03/22 07:18:00;;;;;;;19.97;17.77;;;7.00;98.90;;;;;;5013381;28;20902;-70
2022/03/22 07:20:26;;;;;;;21.70;18.67;;;7.10;99.40;;;;;;5013331;28;20397;-70
2022/03/22 07:22:52;;;;;;;24.03;18.73;;;7.00;99.30;;;;;;5012060;28;20432;-69
2022/03/22 07:25:17;;;;;;;24.27;19.70;;;7.10;99.60;;;;;;5013336;28;20435;-69
2022/03/22 07:27:44;;;;;;;22.23;19.70;;;7.30;99.60;;;;;;5013066;28;20160;-69
2022/03/22 07:30:12;;;;;;;23.63;20.00;;;7.20;98.90;;;;;;5012782;28;20194;-69
2022/03/22 07:32:39;;;;;;;21.43;18.87;;;7.40;99.10;;;;;;5013094;28;20416;-69
2022/03/22 07:35:06;;;;;;;20.87;18.60;;;7.60;99.40;;;;;;5012869;28;21001;-69
2022/03/22 07:37:32;;;;;;;25.20;21.00;;;7.90;99.20;;;;;;5012951;28;20455;-69
2022/03/22 07:39:58;;;;;;;24.70;19.87;;;8.00;99.30;;;;;;5012043;28;20406;-69
2022/03/22 07:42:27;;;;;;;24.43;20.67;;;8.10;98.80;;;;;;4995355;28;20411;-69
2022/03/22 07:44:55;;;;;;;28.03;20.33;;;8.10;98.10;;;;;;4993005;28;20416;-69
2022/03/22 07:47:21;;;;;;;22.90;20.50;;;8.10;98.10;;;;;;5004290;28;20403;-70
2022/03/22 07:55:14;;;;;;;23.80;19.40;;;8.00;97.90;;;;;;5012916;28;20449;-69
2022/03/22 07:57:40;;;;;;;27.00;19.80;;;8.20;98.00;;;;;;5012566;28;20949;-71
2022/03/22 08:00:07;;;;;;;25.93;21.50;;;8.00;97.30;;;;;;4999995;28;20664;-70
2022/03/22 08:02:36;;;;;;;25.63;19.53;;;8.20;97.30;;;;;;5012942;28;20169;-71
2022/03/22 08:05:04;;;;;;;24.80;19.27;;;8.20;97.00;;;;;;5012509;28;20421;-70
2022/03/22 08:07:30;;;;;;;32.13;23.37;;;8.10;97.00;;;;;;5012780;28;20410;-71
2022/03/22 08:09:56;;;;;;;24.50;20.90;;;8.10;97.10;;;;;;5016920;28;20458;-71
2022/03/22 08:12:22;;;;;;;23.17;20.43;;;8.40;97.10;;;;;;5016889;28;20413;-73
2022/03/22 08:14:47;;;;;;;22.60;19.13;;;8.30;96.20;;;;;;4999346;28;20205;-71
2022/03/22 08:17:13;;;;;;;26.80;21.57;;;8.40;96.10;;;;;;4997019;28;20198;-72
2022/03/22 08:19:39;;;;;;;27.43;20.53;;;8.70;96.00;;;;;;4997123;28;20164;-71
2022/03/22 08:22:05;;;;;;;28.20;20.50;;;8.70;95.50;;;;;;4996744;28;20635;-70
2022/03/22 08:24:31;;;;;;;23.03;19.97;;;9.00;95.20;;;;;;4997131;28;20429;-71
2022/03/22 08:26:57;;;;;;;23.47;18.03;;;9.10;94.90;;;;;;4996849;28;20413;-71
2022/03/22 08:29:25;;;;;;;22.80;18.67;;;9.20;94.80;;;;;;4996923;28;20411;-72
2022/03/22 08:31:52;;;;;;;25.17;19.63;;;9.40;94.30;;;;;;5014711;28;20450;-72
2022/03/22 08:34:19;;;;;;;20.80;18.60;;;9.40;94.30;;;;;;5016246;28;20427;-73
2022/03/22 08:36:44;;;;;;;21.50;18.17;;;9.50;94.00;;;;;;5016236;28;20446;-73
2022/03/22 08:39:11;;;;;;;23.03;18.77;;;9.40;94.30;;;;;;5016033;28;20422;-73
2022/03/22 08:41:37;;;;;;;25.27;19.50;;;9.60;94.30;;;;;;5016024;28;20657;-69
2022/03/22 08:44:02;;;;;;;24.20;18.20;;;9.70;94.20;;;;;;5016263;28;20412;-71
2022/03/22 08:46:28;;;;;;;23.23;20.03;;;9.60;93.50;;;;;;5015661;28;20442;-70
2022/03/22 08:48:55;;;;;;;21.83;19.40;;;9.40;94.00;;;;;;5016014;28;20180;-68
2022/03/22 08:51:24;;;;;;;22.07;18.40;;;9.50;94.20;;;;;;5015820;28;20699;-70
2022/03/22 08:53:50;;;;;;;21.03;18.60;;;9.60;93.80;;;;;;5015947;28;20418;-69
2022/03/22 08:56:16;;;;;;;21.90;19.20;;;9.60;94.10;;;;;;5040326;22;20622;-69
2022/03/22 08:58:42;;;;;;;22.73;19.50;;;9.80;93.60;;;;;;5016756;28;20823;-69
2022/03/22 09:01:08;;;;;;;24.10;20.80;;;9.90;93.50;;;;;;5016112;28;20441;-70
2022/03/22 09:03:35;;;;;;;21.57;18.77;;;10.00;92.80;;;;;;5016971;28;20642;-69
2022/03/22 09:06:12;;;;;;;23.80;20.37;;;10.20;92.50;;;;;;5016997;28;20199;-69
2022/03/22 09:08:39;;;;;;;24.00;20.13;;;10.10;92.50;;;;;;5017060;28;20385;-68
2022/03/22 09:11:06;;;;;;;21.93;19.30;;;10.20;92.50;;;;;;5016343;28;20480;-68
2022/03/22 09:13:32;;;;;;;22.90;18.97;;;10.40;92.40;;;;;;5016332;28;20395;-67
2022/03/22 09:15:58;;;;;;;22.63;19.47;;;10.50;92.20;;;;;;5015354;28;20761;-70
2022/03/22 09:18:25;;;;;;;21.10;17.97;;;10.70;92.10;;;;;;5015744;28;20410;-69
2022/03/22 09:20:50;;;;;;;24.20;18.93;;;10.60;91.60;;;;;;5015196;28;20175;-68
2022/03/22 09:23:17;;;;;;;22.40;17.90;;;10.60;91.90;;;;;;5016047;28;20764;-69
2022/03/22 09:25:43;;;;;;;26.10;20.40;;;10.70;91.70;;;;;;5016029;28;20188;-70
2022/03/22 09:28:10;;;;;;;19.70;17.60;;;10.80;91.70;;;;;;5015559;28;20403;-68
2022/03/22 09:30:38;;;;;;;23.80;21.00;;;11.00;91.30;;;;;;5013918;28;20421;-70
2022/03/22 09:33:04;;;;;;;22.13;19.77;;;11.10;90.90;;;;;;5015811;28;20445;-69
2022/03/22 09:35:31;;;;;;;21.87;19.57;;;11.30;90.90;;;;;;5015460;28;20431;-69
2022/03/22 09:37:57;;;;;;;25.00;19.43;;;11.30;90.70;;;;;;5015388;28;20470;-68
2022/03/22 09:40:24;;;;;;;26.63;20.20;;;11.30;90.90;;;;;;5009511;28;20445;-68
2022/03/22 09:42:49;;;;;;;22.30;19.27;;;11.40;90.70;;;;;;4997732;28;20422;-68
2022/03/22 09:45:18;;;;;;;21.47;19.30;;;11.60;90.80;;;;;;4995515;28;20506;-68
2022/03/22 09:47:45;;;;;;;22.90;20.50;;;11.60;90.60;;;;;;5004833;28;20435;-68
2022/03/22 09:50:12;;;;;;;21.23;18.70;;;11.80;90.70;;;;;;5013815;28;20432;-68
2022/03/22 09:52:39;;;;;;;21.73;18.90;;;11.90;90.50;;;;;;5015085;28;20459;-67
2022/03/22 09:55:07;;;;;;;23.93;19.40;;;12.00;90.30;;;;;;5013394;28;20499;-68
2022/03/22 09:57:33;;;;;;;22.63;18.47;;;12.30;90.10;;;;;;5015035;28;20453;-68
2022/03/22 09:59:58;;;;;;;27.70;20.27;;;12.20;89.90;;;;;;5015152;28;20412;-67
2022/03/22 10:02:28;;;;;;;22.67;20.13;;;12.40;89.60;;;;;;5015184;28;20494;-68
2022/03/22 10:04:54;;;;;;;22.77;20.30;;;12.50;89.20;;;;;;5014963;28;20247;-67
2022/03/22 10:07:22;;;;;;;24.43;19.20;;;12.60;89.00;;;;;;5014888;28;20904;-68
2022/03/22 10:09:53;;;;;;;23.43;20.80;;;12.70;88.40;;;;;;5015144;28;20660;-67
2022/03/22 10:12:32;;;;;;;21.87;19.33;;;12.90;88.10;;;;;;5015228;28;20771;-68
2022/03/22 10:15:11;;;;;;;23.20;19.50;;;13.10;88.40;;;;;;5015102;28;20541;-68
2022/03/22 10:17:38;;;;;;;22.63;20.17;;;13.40;86.50;;;;;;5014836;28;20500;-68
2022/03/22 10:20:05;;;;;;;24.40;19.00;;;13.30;85.50;;;;;;5014365;28;20943;-68
2022/03/22 10:22:32;;;;;;;25.83;19.60;;;13.30;85.20;;;;;;5000156;28;20783;-67
2022/03/22 10:25:00;;;;;;;23.83;20.97;;;13.30;84.50;;;;;;4995081;28;20745;-68
2022/03/22 10:27:36;;;;;;;23.37;20.17;;;13.40;84.30;;;;;;4994832;28;20869;-67
2022/03/22 10:30:05;;;;;;;23.07;18.90;;;13.50;83.00;;;;;;4995633;28;20395;-66
2022/03/22 10:32:37;;;;;;;21.77;19.30;;;13.50;83.30;;;;;;4994143;28;20408;-68
2022/03/22 10:35:14;;;;;;;22.47;20.07;;;13.80;83.90;;;;;;4994530;28;20773;-69
2022/03/22 10:38:08;;;;;;;23.50;20.20;;;14.00;82.40;;;;;;4975076;28;20455;-68
2022/03/22 10:40:42;;;;;;;21.70;19.40;;;14.20;81.60;;;;;;4973460;28;20558;-67
2022/03/22 10:43:10;;;;;;;22.77;20.37;;;14.30;78.80;;;;;;4974045;28;20406;-69
2022/03/22 10:45:52;;;;;;;22.53;20.20;;;14.30;80.20;;;;;;4975504;28;20794;-69
2022/03/22 10:48:30;;;;;;;28.80;20.70;;;14.50;78.40;;;;;;4975531;28;20876;-69
2022/03/22 10:50:59;;;;;;;26.57;19.93;;;14.50;76.70;;;;;;5002300;28;20480;-67
2022/03/22 10:53:34;;;;;;;24.10;19.83;;;15.00;75.70;;;;;;5071354;28;20536;-68
2022/03/22 10:56:02;;;;;;;23.10;19.00;;;16.20;71.90;;;;;;5070381;28;20428;-68
2022/03/22 10:58:30;;;;;;;20.50;18.40;;;17.00;67.90;;;;;;5070584;28;20425;-69
2022/03/22 11:00:57;;;;;;;23.77;19.80;;;17.90;66.10;;;;;;5059400;28;20922;-69
2022/03/22 11:03:24;;;;;;;21.40;18.80;;;19.00;61.90;;;;;;5050402;28;20424;-68
2022/03/22 11:05:52;;;;;;;22.60;18.13;;;18.60;59.60;;;;;;5050312;28;20425;-68
2022/03/22 11:08:22;;;;;;;20.80;18.70;;;18.10;60.10;;;;;;5049304;28;20483;-70
2022/03/22 11:10:53;;;;;;;31.30;21.43;;;17.60;60.30;;;;;;5049951;28;20416;-68
2022/03/22 11:13:19;;;;;;;21.67;18.80;;;17.00;60.70;;;;;;5050050;28;20959;-69
2022/03/22 11:15:47;;;;;;;22.17;19.70;;;17.20;60.60;;;;;;5050325;28;20554;-68
2022/03/22 11:18:15;;;;;;;22.30;18.73;;;18.50;58.80;;;;;;5049434;28;20402;-68
2022/03/22 11:20:49;;;;;;;21.83;19.13;;;18.30;57.70;;;;;;5050969;28;20870;-68
2022/03/22 11:23:19;;;;;;;19.90;17.90;;;19.60;56.60;;;;;;5050769;28;20389;-68
2022/03/22 11:25:45;;;;;;;20.60;18.40;;;20.80;53.10;;;;;;5048441;28;20425;-68
2022/03/22 11:28:13;;;;;;;20.93;18.67;;;20.70;52.60;;;;;;5049923;28;20542;-68
2022/03/22 11:30:41;;;;;;;21.00;18.73;;;21.80;51.30;;;;;;5061188;28;20438;-68
2022/03/22 11:35:57;;;;;;;23.53;19.30;;;22.20;46.90;;;;;;5054989;28;20502;-69
2022/03/22 11:38:40;;;;;;;18.83;16.90;;;21.00;48.30;;;;;;5069440;28;20424;-69
2022/03/22 11:44:08;;;;;;;18.53;16.83;;;21.40;46.20;;;;;;5069664;28;20376;-69
2022/03/22 11:46:33;;;;;;;18.87;17.00;;;22.90;45.80;;;;;;5069256;28;20427;-69
2022/03/22 11:49:17;;;;;;;19.40;17.30;;;24.70;43.10;;;;;;5069266;28;20404;-67
2022/03/22 11:51:55;;;;;;;19.57;17.53;;;23.40;42.30;;;;;;5069006;28;20598;-68
2022/03/22 11:54:22;;;;;;;18.20;16.03;;;25.20;40.60;;;;;;5069080;28;20460;-68
2022/03/22 11:56:55;;;;;;;17.30;15.60;;;24.70;40.30;;;;;;5069183;28;20492;-67
2022/03/22 11:59:22;;;;;;;19.80;17.70;;;23.00;40.90;;;;;;5068942;28;20440;-67
2022/03/22 12:01:58;;;;;;;19.50;17.67;;;22.50;42.40;;;;;;5051671;28;20424;-69
2022/03/22 12:04:36;;;;;;;18.83;16.93;;;23.20;40.60;;;;;;5038934;28;20401;-69
2022/03/22 12:07:07;;;;;;;18.30;16.50;;;23.80;40.20;;;;;;5035800;28;20409;-69
2022/03/22 12:09:37;;;;;;;19.27;17.37;;;24.40;41.60;;;;;;5035910;28;20387;-68
2022/03/22 12:12:06;;;;;;;17.70;16.10;;;25.50;38.10;;;;;;5035722;28;20445;-69
2022/03/22 12:14:34;;;;;;;19.20;17.40;;;26.00;37.50;;;;;;5035713;28;20406;-68
2022/03/22 12:17:01;;;;;;;19.23;17.20;;;26.10;36.90;;;;;;5036828;28;20469;-68
2022/03/22 12:19:32;;;;;;;22.07;19.90;;;25.40;37.90;;;;;;5036755;28;20410;-68
2022/03/22 12:22:00;;;;;;;19.13;17.33;;;25.20;38.50;;;;;;5035411;28;20464;-68
2022/03/22 12:24:32;;;;;;;19.50;17.50;;;24.20;38.80;;;;;;5036427;28;20915;-69
2022/03/22 12:26:59;;;;;;;20.60;18.50;;;24.80;41.10;;;;;;5035910;28;20421;-68
2022/03/22 12:29:25;;;;;;;20.13;18.00;;;26.20;39.10;;;;;;5039584;28;20409;-68
2022/03/22 12:31:53;;;;;;;20.30;18.40;;;26.90;37.40;;;;;;5035481;28;20446;-70
2022/03/22 12:34:24;;;;;;;23.13;20.60;;;26.50;36.70;;;;;;5042898;28;20502;-71
2022/03/22 12:36:50;;;;;;;20.07;18.13;;;27.10;37.00;;;;;;5054131;28;20428;-71
2022/03/22 12:39:16;;;;;;;21.63;19.40;;;26.50;36.70;;;;;;5055074;28;20401;-67
2022/03/22 12:41:43;;;;;;;22.40;20.20;;;25.00;38.40;;;;;;5054717;28;20505;-67
2022/03/22 12:44:09;;;;;;;22.50;20.30;;;23.80;39.10;;;;;;5054934;28;20170;-68
2022/03/22 12:46:35;;;;;;;20.13;18.03;;;23.30;39.80;;;;;;5054421;28;20429;-69
2022/03/22 12:49:00;;;;;;;20.83;18.93;;;25.50;38.70;;;;;;5054839;28;20167;-69
2022/03/22 12:51:26;;;;;;;19.07;17.20;;;25.40;37.40;;;;;;5054712;28;21004;-69
2022/03/22 12:53:54;;;;;;;19.43;17.63;;;23.70;39.00;;;;;;5054918;28;20195;-68
2022/03/22 12:56:21;;;;;;;21.90;19.73;;;23.90;38.50;;;;;;5067287;22;20323;-71
2022/03/22 12:58:49;;;;;;;20.33;18.27;;;25.70;37.60;;;;;;5014011;28;20415;-70
2022/03/22 13:01:18;;;;;;;23.13;18.80;;;26.00;37.30;;;;;;5025206;28;20731;-71
2022/03/22 13:03:44;;;;;;;20.50;18.30;;;27.80;35.40;;;;;;5033361;28;20394;-71
2022/03/22 13:06:11;;;;;;;20.47;18.20;;;27.70;36.00;;;;;;5034339;28;20509;-70
2022/03/22 13:16:34;;;;;;;21.97;18.87;;;28.50;34.10;;;;;;5009802;28;20415;-68
2022/03/22 13:19:01;;;;;;;20.50;18.50;;;26.90;35.00;;;;;;5013573;28;20486;-71